TTPP 241600Z 09005KT 9999 VCSH TS FEW010CB 29/25 Q1012 NOSIG RMK CB-SW E VCSH-NE SE SW

TAPA 241600Z 09012KT 040V140 9999 SCT023 30/23 Q1016 NOSIG

TVSC 021200Z 06015KT 9999 SCT016 25/19 Q1016 NOSIG

TFFF 241630Z AUTO 10017KT 9999 FEW034 31/24 Q1013 TEMPO 10015G30KT

TLPL 241600Z 10022KT 9999 FEW030 31/24 Q1013 NOSIG

TBPB 241600Z 10021KT 9999 FEW022 31/24 Q1013 NOSIG

TDPD 241600Z 11011KT 9999 SCT021 31/25 Q1015

TGPY 241600Z 09016KT 9999 FEW015CB SCT016 32/26 Q1012 NOSIG CB-E/SE/S/SW ADJ SHRA-S/W

TKPN 241600Z 08015KT 9999 SCT017 31/25 Q1015

TLPC 241600Z 10012G22KT 9999 BKN025 31/23 Q1014 NOSIG

TTCP 241600Z 10003G15KT 9000 TS VCSH FEW009CB 27/25 Q1012 NOSIG RMK CB N NE SE S

TVSV 132043Z 12005G18KT 4000 SHRA BKN014 27/23 Q1010

TFFR 241630Z AUTO 09012KT 9999 SCT040 BKN052 31/22 Q1014 NOSIG